createdAt,value
2023-01-17T00:02:06.743Z,0.45
2023-01-17T00:04:33.749Z,0.93
2023-01-17T00:07:00.615Z,0.68
2023-01-17T00:09:27.706Z,0.52
2023-01-17T00:11:56.790Z,0.57
2023-01-17T00:14:23.742Z,0.52
2023-01-17T00:16:50.523Z,0.30
2023-01-17T00:19:17.454Z,0.60
2023-01-17T00:21:44.219Z,0.20
2023-01-17T00:24:11.683Z,0.57
2023-01-17T00:26:38.628Z,0.98
2023-01-17T00:29:06.781Z,0.25
2023-01-17T00:31:33.530Z,0.50
2023-01-17T00:34:00.459Z,0.73
2023-01-17T00:36:27.321Z,0.70
2023-01-17T00:38:54.069Z,0.47
2023-01-17T00:41:20.874Z,0.65
2023-01-17T00:43:47.881Z,0.60
2023-01-17T00:46:16.786Z,0.45
2023-01-17T00:48:43.597Z,0.80
2023-01-17T00:51:10.332Z,0.40
2023-01-17T00:53:37.324Z,0.73
2023-01-17T00:56:05.062Z,0.70
2023-01-17T00:58:31.795Z,0.75
2023-01-17T01:00:58.712Z,0.95
2023-01-17T01:03:27.147Z,0.60
2023-01-17T01:05:53.849Z,0.98
2023-01-17T01:08:23.571Z,0.98
2023-01-17T01:10:50.383Z,0.55
2023-01-17T01:13:17.329Z,0.68
2023-01-17T01:15:44.001Z,0.75
2023-01-17T01:18:12.483Z,1.48
2023-01-17T01:20:40.624Z,0.93
2023-01-17T01:23:07.490Z,0.95
2023-01-17T01:25:36.279Z,0.77
2023-01-17T01:28:04.329Z,1.05
2023-01-17T01:30:31.359Z,0.98
2023-01-17T01:33:01.161Z,1.15
2023-01-17T01:35:28.131Z,0.20
2023-01-17T01:37:56.313Z,0.38
2023-01-17T01:40:23.118Z,0.30
2023-01-17T01:42:51.516Z,0.90
2023-01-17T01:45:21.473Z,1.02
2023-01-17T01:47:50.077Z,0.77
2023-01-17T01:50:18.919Z,0.95
2023-01-17T01:52:51.819Z,0.50
2023-01-17T01:55:23.783Z,1.02
2023-01-17T01:57:54.500Z,0.20
2023-01-17T02:00:25.141Z,0.43
2023-01-17T02:02:55.889Z,0.60
2023-01-17T02:05:25.650Z,0.57
2023-01-17T02:07:58.712Z,0.63
2023-01-17T02:10:26.912Z,0.60
2023-01-17T02:12:56.222Z,1.80
2023-01-17T02:15:31.607Z,0.90
2023-01-17T02:18:08.485Z,0.80
2023-01-17T02:20:55.240Z,0.93
2023-01-17T02:24:05.373Z,0.90
2023-01-17T02:26:50.107Z,0.60
2023-01-17T02:29:49.550Z,0.50
2023-01-17T02:32:25.991Z,0.90
2023-01-17T02:35:01.008Z,0.47
2023-01-17T02:37:40.205Z,0.98
2023-01-17T02:40:12.653Z,0.60
2023-01-17T02:42:44.034Z,0.82
2023-01-17T02:45:16.051Z,0.93
2023-01-17T02:47:47.312Z,0.73
2023-01-17T02:52:55.829Z,0.60
2023-01-17T02:55:36.881Z,0.85
2023-01-17T02:58:23.226Z,0.60
2023-01-17T03:01:01.398Z,0.88
2023-01-17T03:03:35.408Z,0.70
2023-01-17T03:06:07.641Z,0.85
2023-01-17T03:08:34.784Z,0.60
2023-01-17T03:11:01.900Z,0.70
2023-01-17T03:13:30.058Z,0.80
2023-01-17T03:15:56.948Z,0.82
2023-01-17T03:18:24.207Z,0.63
2023-01-17T03:20:53.026Z,0.90
2023-01-17T03:23:19.778Z,1.13
2023-01-17T03:25:46.676Z,1.67
2023-01-17T03:28:13.355Z,0.80
2023-01-17T03:30:40.553Z,1.17
2023-01-17T03:33:07.651Z,0.90
2023-01-17T03:35:35.283Z,0.88
2023-01-17T03:38:03.629Z,1.30
2023-01-17T03:40:30.439Z,0.70
2023-01-17T03:42:57.203Z,0.65
2023-01-17T03:45:23.981Z,0.90
2023-01-17T03:47:50.905Z,0.93
2023-01-17T03:50:17.990Z,1.23
2023-01-17T03:52:44.782Z,0.70
2023-01-17T03:55:15.846Z,1.42
2023-01-17T03:57:42.620Z,0.50
2023-01-17T04:00:15.799Z,1.25
2023-01-17T04:02:42.933Z,0.70
2023-01-17T04:05:09.914Z,0.70
2023-01-17T04:07:37.623Z,0.40
2023-01-17T04:10:05.443Z,0.30
2023-01-17T04:12:35.917Z,0.75
2023-01-17T04:15:02.922Z,0.40
2023-01-17T04:17:30.054Z,1.50
2023-01-17T04:19:58.767Z,0.30
2023-01-17T04:22:25.591Z,0.60
2023-01-17T04:24:55.557Z,0.45
2023-01-17T04:27:22.249Z,0.70
2023-01-17T04:29:50.499Z,0.30
2023-01-17T04:32:17.404Z,0.30
2023-01-17T04:34:44.187Z,0.28
2023-01-17T04:37:11.090Z,0.35
2023-01-17T04:39:39.282Z,0.38
2023-01-17T04:42:06.088Z,0.52
2023-01-17T04:44:32.868Z,0.40
2023-01-17T04:47:01.135Z,0.30
2023-01-17T04:49:27.832Z,0.30
2023-01-17T04:51:57.710Z,0.90
2023-01-17T04:54:24.486Z,0.88
2023-01-17T04:56:51.165Z,0.47
2023-01-17T04:59:18.017Z,0.57
2023-01-17T05:01:45.130Z,0.80
2023-01-17T05:04:13.431Z,1.10
2023-01-17T05:06:40.183Z,1.75
2023-01-17T05:09:07.232Z,1.00
2023-01-17T05:11:33.963Z,0.70
2023-01-17T05:14:00.769Z,0.63
2023-01-17T05:16:27.540Z,0.60
2023-01-17T05:18:54.626Z,1.05
2023-01-17T05:21:23.365Z,0.65
2023-01-17T05:23:50.343Z,0.68
2023-01-17T05:26:17.911Z,0.60
2023-01-17T05:28:47.206Z,1.23
2023-01-17T05:31:13.988Z,1.00
2023-01-17T05:33:40.778Z,0.60
2023-01-17T05:36:08.294Z,0.47
2023-01-17T05:38:37.835Z,0.50
2023-01-17T05:41:05.567Z,0.77
2023-01-17T05:43:33.068Z,0.80
2023-01-17T05:45:59.968Z,0.95
2023-01-17T05:48:27.015Z,0.73
2023-01-17T05:50:54.190Z,0.90
2023-01-17T05:53:21.322Z,0.80
2023-01-17T05:55:49.465Z,0.88
2023-01-17T05:58:18.904Z,0.73
2023-01-17T06:00:47.018Z,0.57
2023-01-17T06:03:14.338Z,0.63
2023-01-17T06:05:41.547Z,0.52
2023-01-17T06:08:09.518Z,0.45
2023-01-17T06:10:36.310Z,0.50
2023-01-17T06:13:07.283Z,0.50
2023-01-17T06:15:50.854Z,0.32
2023-01-17T06:18:18.532Z,0.40
2023-01-17T06:20:45.998Z,0.80
2023-01-17T06:23:14.510Z,0.35
2023-01-17T06:25:45.032Z,0.55
2023-01-17T06:28:14.514Z,0.40
2023-01-17T06:30:41.621Z,0.47
2023-01-17T06:33:08.910Z,0.85
2023-01-17T06:35:35.791Z,0.60
2023-01-17T06:38:02.487Z,0.70
2023-01-17T06:40:30.391Z,0.75
2023-01-17T06:42:59.995Z,0.60
2023-01-17T06:45:28.593Z,0.55
2023-01-17T06:47:56.121Z,0.60
2023-01-17T06:50:23.999Z,1.08
2023-01-17T06:52:55.365Z,0.40
2023-01-17T06:55:24.155Z,0.60
2023-01-17T06:57:51.180Z,0.57
2023-01-17T07:00:18.653Z,0.85
2023-01-17T07:02:49.528Z,0.75
2023-01-17T07:07:45.765Z,0.65
2023-01-17T07:10:14.363Z,0.52
2023-01-17T07:12:41.379Z,0.60
2023-01-17T07:15:09.814Z,0.40
2023-01-17T07:17:36.641Z,0.47
2023-01-17T07:20:08.450Z,0.75
2023-01-17T07:22:35.267Z,0.30
2023-01-17T07:25:02.316Z,0.47
2023-01-17T07:27:29.058Z,0.45
2023-01-17T07:29:55.869Z,0.50
2023-01-17T07:32:23.067Z,0.40
2023-01-17T07:34:49.861Z,0.75
2023-01-17T07:37:20.888Z,0.45
2023-01-17T07:39:47.691Z,2.50
2023-01-17T07:42:15.227Z,3.92
2023-01-17T07:44:45.706Z,0.70
2023-01-17T07:47:12.538Z,0.40
2023-01-17T07:49:40.836Z,0.82
2023-01-17T07:52:08.430Z,0.60
2023-01-17T07:54:37.341Z,0.63
2023-01-17T07:57:04.442Z,0.60
2023-01-17T07:59:31.206Z,0.73
2023-01-17T08:01:58.132Z,0.40
2023-01-17T08:04:30.546Z,0.90
2023-01-17T08:06:57.597Z,0.47
2023-01-17T08:09:24.505Z,0.65
2023-01-17T08:11:52.831Z,1.52
2023-01-17T08:14:19.708Z,1.13
2023-01-17T08:16:46.667Z,0.70
2023-01-17T08:19:14.943Z,0.80
2023-01-17T08:21:41.804Z,0.70
2023-01-17T08:24:12.096Z,0.60
2023-01-17T08:26:39.213Z,0.50
2023-01-17T08:29:07.442Z,0.60
2023-01-17T08:31:35.164Z,0.68
2023-01-17T08:34:02.022Z,0.30
2023-01-17T08:36:29.593Z,0.57
2023-01-17T08:38:56.964Z,0.52
2023-01-17T08:41:24.879Z,0.85
2023-01-17T08:43:52.254Z,0.50
2023-01-17T08:46:20.506Z,0.40
2023-01-17T08:48:47.535Z,0.40
2023-01-17T08:51:14.357Z,0.55
2023-01-17T08:53:42.413Z,0.50
2023-01-17T08:56:09.883Z,1.02
2023-01-17T08:58:36.615Z,0.88
2023-01-17T09:01:05.879Z,0.55
2023-01-17T09:03:35.244Z,0.70
2023-01-17T09:06:04.000Z,0.60
2023-01-17T09:08:31.722Z,0.68
2023-01-17T09:10:58.631Z,0.60
2023-01-17T09:13:25.527Z,0.98
2023-01-17T09:15:56.803Z,0.63
2023-01-17T09:20:52.108Z,1.02
2023-01-17T09:23:18.860Z,0.60
2023-01-17T09:25:52.200Z,0.95
2023-01-17T09:28:20.636Z,1.30
2023-01-17T09:30:49.546Z,0.95
2023-01-17T09:33:17.969Z,1.23
2023-01-17T09:35:45.930Z,1.23
2023-01-17T09:38:14.369Z,1.10
2023-01-17T09:40:47.349Z,1.65
2023-01-17T09:43:24.000Z,1.63
2023-01-17T09:45:51.183Z,1.95
2023-01-17T09:48:24.554Z,0.80
2023-01-17T09:50:58.850Z,0.70
2023-01-17T09:53:31.546Z,1.15
2023-01-17T09:56:01.520Z,0.75
2023-01-17T09:58:37.203Z,0.80
2023-01-17T10:01:14.829Z,0.88
2023-01-17T10:03:49.251Z,0.80
2023-01-17T10:06:26.025Z,0.63
2023-01-17T10:09:05.380Z,0.88
2023-01-17T10:11:46.050Z,0.90
2023-01-17T10:14:37.272Z,0.80
2023-01-17T10:17:16.957Z,1.13
2023-01-17T10:20:05.141Z,0.40
2023-01-17T10:22:48.187Z,0.68
2023-01-17T10:25:36.959Z,0.70
2023-01-17T10:28:13.213Z,0.95
2023-01-17T10:30:44.771Z,0.95
2023-01-17T10:33:16.451Z,0.90
2023-01-17T10:35:53.538Z,0.52
2023-01-17T10:38:22.913Z,0.70
2023-01-17T10:40:56.997Z,0.80
2023-01-17T10:43:34.852Z,0.95
2023-01-17T10:46:02.284Z,0.82
2023-01-17T10:48:43.859Z,0.40
2023-01-17T10:51:36.413Z,0.95
2023-01-17T10:54:12.927Z,0.70
2023-01-17T10:56:43.121Z,0.75
2023-01-17T10:59:18.161Z,0.63
2023-01-17T11:01:45.227Z,0.82
2023-01-17T11:04:18.962Z,0.90
2023-01-17T11:06:57.582Z,0.90
2023-01-17T11:09:38.217Z,1.02
2023-01-17T11:12:17.529Z,2.28
2023-01-17T11:15:01.648Z,1.02
2023-01-17T11:17:30.461Z,0.60
2023-01-17T11:20:09.194Z,0.80
2023-01-17T11:22:36.979Z,1.27
2023-01-17T11:25:05.243Z,0.73
2023-01-17T11:27:35.284Z,0.90
2023-01-17T11:30:07.476Z,0.60
2023-01-17T11:32:34.986Z,0.68
2023-01-17T11:35:19.883Z,0.65
2023-01-17T11:37:54.845Z,0.82
2023-01-17T11:40:26.483Z,0.80
2023-01-17T11:43:16.704Z,0.60
2023-01-17T11:45:43.597Z,0.63
2023-01-17T11:48:12.708Z,1.05
2023-01-17T11:50:44.213Z,0.63
2023-01-17T11:53:22.076Z,1.92
2023-01-17T11:55:54.787Z,0.68
2023-01-17T11:58:24.068Z,0.50
2023-01-17T12:01:00.259Z,0.55
2023-01-17T12:03:59.634Z,0.73
2023-01-17T12:06:44.791Z,0.95
2023-01-17T12:09:27.662Z,0.52
2023-01-17T12:12:06.463Z,0.60
2023-01-17T12:14:43.673Z,0.60
2023-01-17T12:17:23.142Z,0.80
2023-01-17T12:19:58.612Z,0.73
2023-01-17T12:22:39.957Z,0.63
2023-01-17T12:25:36.516Z,0.50
2023-01-17T12:28:27.307Z,0.40
2023-01-17T12:31:09.280Z,0.37
2023-01-17T12:33:45.235Z,0.40
2023-01-17T12:36:29.119Z,0.50
2023-01-17T12:38:56.732Z,0.50
2023-01-17T12:41:30.536Z,0.70
2023-01-17T12:44:01.103Z,0.65
2023-01-17T12:46:35.308Z,0.63
2023-01-17T12:49:18.417Z,0.50
2023-01-17T12:51:49.555Z,0.45
2023-01-17T12:54:25.779Z,0.52
2023-01-17T12:56:56.891Z,0.35
2023-01-17T12:59:32.229Z,0.45
2023-01-17T13:02:12.609Z,0.47
2023-01-17T13:04:57.730Z,0.50
2023-01-17T13:07:37.561Z,0.32
2023-01-17T13:10:21.422Z,0.60
2023-01-17T13:12:50.288Z,0.30
2023-01-17T13:15:19.442Z,0.60
2023-01-17T13:17:51.282Z,0.50
2023-01-17T13:20:24.433Z,0.38
2023-01-17T13:22:52.206Z,0.40
2023-01-17T13:25:33.892Z,0.40
2023-01-17T13:28:17.793Z,0.47
2023-01-17T13:31:03.536Z,0.40
2023-01-17T13:33:54.554Z,0.55
2023-01-17T13:36:40.864Z,0.50
2023-01-17T13:39:27.155Z,0.40
2023-01-17T13:42:07.056Z,0.38
2023-01-17T13:44:33.991Z,0.45
2023-01-17T13:47:03.327Z,0.30
2023-01-17T13:49:42.894Z,0.43
2023-01-17T13:52:11.697Z,0.35
2023-01-17T13:54:47.083Z,0.57
2023-01-17T13:57:44.148Z,0.25
2023-01-17T14:00:44.479Z,0.45
2023-01-17T14:03:11.408Z,0.70
2023-01-17T14:05:59.876Z,0.77
2023-01-17T14:08:27.220Z,0.68
2023-01-17T14:11:04.645Z,0.40
2023-01-17T14:13:34.925Z,0.75
2023-01-17T14:16:06.699Z,0.47
2023-01-17T14:18:38.335Z,0.35
2023-01-17T14:21:11.774Z,0.50
2023-01-17T14:23:59.612Z,0.40
2023-01-17T14:26:48.008Z,0.47
2023-01-17T14:29:51.963Z,0.40
2023-01-17T14:32:23.869Z,0.40
2023-01-17T14:34:52.315Z,0.68
2023-01-17T14:37:31.241Z,0.40
2023-01-17T14:39:59.403Z,0.40
2023-01-17T14:42:29.358Z,0.60
2023-01-17T14:45:01.099Z,0.40
2023-01-17T14:47:31.471Z,0.20
2023-01-17T14:50:28.315Z,0.28
2023-01-17T14:53:30.622Z,0.30
2023-01-17T14:56:00.921Z,0.40
2023-01-17T14:58:32.496Z,0.30
2023-01-17T15:01:03.209Z,0.70
2023-01-17T15:03:34.654Z,0.63
2023-01-17T15:08:36.835Z,0.40
2023-01-17T15:11:13.657Z,0.70
2023-01-17T15:13:46.051Z,0.38
2023-01-17T15:16:23.254Z,0.60
2023-01-17T15:18:51.545Z,0.70
2023-01-17T15:21:20.490Z,0.40
2023-01-17T15:23:53.346Z,0.60
2023-01-17T15:26:23.824Z,0.40
2023-01-17T15:28:52.445Z,0.57
2023-01-17T15:31:23.635Z,0.90
2023-01-17T15:33:55.559Z,0.80
2023-01-17T15:36:27.215Z,0.70
2023-01-17T15:38:57.480Z,0.80
2023-01-17T15:41:32.412Z,1.00
2023-01-17T15:44:01.666Z,1.20
2023-01-17T15:46:33.775Z,1.25
2023-01-17T15:49:15.548Z,1.25
2023-01-17T15:51:52.355Z,0.80
2023-01-17T15:54:42.429Z,0.70
2023-01-17T15:57:23.003Z,0.70
2023-01-17T15:59:53.625Z,0.97
2023-01-17T16:02:39.100Z,0.60
2023-01-17T16:05:55.791Z,0.55
2023-01-17T16:08:38.707Z,1.50
2023-01-17T16:11:10.630Z,0.70
2023-01-17T16:13:40.217Z,0.90
2023-01-17T16:16:20.874Z,1.00
2023-01-17T16:18:48.988Z,1.73
2023-01-17T16:21:23.124Z,1.35
2023-01-17T16:23:50.839Z,1.80
2023-01-17T16:26:21.343Z,1.95
2023-01-17T16:28:48.904Z,1.23
2023-01-17T16:31:16.244Z,1.50
2023-01-17T16:33:44.031Z,1.35
2023-01-17T16:36:15.553Z,1.45
2023-01-17T16:38:45.140Z,1.40
2023-01-17T16:41:41.673Z,1.38
2023-01-17T16:44:10.159Z,1.40
2023-01-17T16:46:40.242Z,1.25
2023-01-17T16:49:07.077Z,1.30
2023-01-17T16:51:38.793Z,1.10
2023-01-17T16:54:06.240Z,0.90
2023-01-17T16:56:34.451Z,0.73
2023-01-17T16:59:01.372Z,0.90
2023-01-17T17:01:28.264Z,1.05
2023-01-17T17:04:03.328Z,1.17
2023-01-17T17:06:33.235Z,1.00
2023-01-17T17:09:06.510Z,1.00
2023-01-17T17:11:34.609Z,0.93
2023-01-17T17:14:02.053Z,0.90
2023-01-17T17:16:30.429Z,1.00
2023-01-17T17:18:59.030Z,1.40
2023-01-17T17:21:26.552Z,1.35
2023-01-17T17:23:54.337Z,1.48
2023-01-17T17:26:21.055Z,1.20
2023-01-17T17:28:52.913Z,2.00
2023-01-17T17:31:20.523Z,1.80
2023-01-17T17:33:47.902Z,1.55
2023-01-17T17:36:14.943Z,1.77
2023-01-17T17:38:41.981Z,1.75
2023-01-17T17:41:09.802Z,1.65
2023-01-17T17:43:41.464Z,1.60
2023-01-17T17:46:09.923Z,1.60
2023-01-17T17:48:37.382Z,1.40
2023-01-17T17:51:05.303Z,1.20
2023-01-17T17:53:32.512Z,1.40
2023-01-17T17:56:05.200Z,1.80
2023-01-17T17:58:34.796Z,1.60
2023-01-17T18:01:06.368Z,1.42
2023-01-17T18:03:37.059Z,1.48
2023-01-17T18:06:08.501Z,1.30
2023-01-17T18:08:38.931Z,1.73
2023-01-17T18:11:07.450Z,1.50
2023-01-17T18:13:34.398Z,1.40
2023-01-17T18:16:03.730Z,1.20
2023-01-17T18:18:32.165Z,1.40
2023-01-17T18:21:22.726Z,1.58
2023-01-17T18:23:52.170Z,1.23
2023-01-17T18:26:23.377Z,1.40
2023-01-17T18:28:51.732Z,1.10
2023-01-17T18:31:18.692Z,1.20
2023-01-17T18:33:45.952Z,1.33
2023-01-17T18:36:21.760Z,1.58
2023-01-17T18:38:48.765Z,2.00
2023-01-17T18:41:19.736Z,1.60
2023-01-17T18:43:47.552Z,1.60
2023-01-17T18:46:16.081Z,1.55
2023-01-17T18:48:45.886Z,2.13
2023-01-17T18:51:15.440Z,2.05
2023-01-17T18:53:46.909Z,2.22
2023-01-17T18:56:17.792Z,1.85
2023-01-17T18:58:46.008Z,1.92
2023-01-17T19:01:14.761Z,1.98
2023-01-17T19:03:44.881Z,1.70
2023-01-17T19:06:14.748Z,2.10
2023-01-17T19:08:42.516Z,2.15
2023-01-17T19:11:18.432Z,1.80
2023-01-17T19:13:45.345Z,1.83
2023-01-17T19:16:13.867Z,1.77
2023-01-17T19:18:41.421Z,3.78
2023-01-17T19:21:10.366Z,2.30
2023-01-17T19:23:37.951Z,2.00
2023-01-17T19:26:06.187Z,1.60
2023-01-17T19:28:37.060Z,2.28
2023-01-17T19:31:06.092Z,1.95
2023-01-17T19:33:35.194Z,1.85
2023-01-17T19:36:06.578Z,1.52
2023-01-17T19:38:34.947Z,1.80
2023-01-17T19:41:07.850Z,1.77
2023-01-17T19:43:37.150Z,2.20
2023-01-17T19:46:04.464Z,1.90
2023-01-17T19:48:32.035Z,2.10
2023-01-17T19:51:04.752Z,1.92
2023-01-17T19:53:31.544Z,2.80
2023-01-17T19:55:58.537Z,2.72
2023-01-17T19:58:27.551Z,2.75
2023-01-17T20:01:05.093Z,2.50
2023-01-17T20:03:31.977Z,2.80
2023-01-17T20:05:58.668Z,2.55
2023-01-17T20:08:27.045Z,2.35
2023-01-17T20:10:54.097Z,2.88
2023-01-17T20:13:21.036Z,2.22
2023-01-17T20:15:48.155Z,2.85
2023-01-17T20:18:16.772Z,2.10
2023-01-17T20:20:56.357Z,2.55
2023-01-17T20:23:24.087Z,2.60
2023-01-17T20:25:54.297Z,2.63
2023-01-17T20:28:21.159Z,2.58
2023-01-17T20:30:48.254Z,3.45
2023-01-17T20:33:17.519Z,2.90
2023-01-17T20:35:44.818Z,2.53
2023-01-17T20:38:11.886Z,2.80
2023-01-17T20:40:38.920Z,2.90
2023-01-17T20:43:05.726Z,2.72
2023-01-17T20:45:32.757Z,3.00
2023-01-17T20:47:59.876Z,2.42
2023-01-17T20:50:28.200Z,2.03
2023-01-17T20:52:55.174Z,2.13
2023-01-17T20:55:22.069Z,1.98
2023-01-17T20:57:48.848Z,2.22
2023-01-17T21:00:16.408Z,2.25
2023-01-17T21:02:43.328Z,3.85
2023-01-17T21:05:10.332Z,3.13
2023-01-17T21:07:38.612Z,2.70
2023-01-17T21:10:09.083Z,2.20
2023-01-17T21:12:37.312Z,1.95
2023-01-17T21:15:04.758Z,1.83
2023-01-17T21:17:34.883Z,1.70
2023-01-17T21:20:01.777Z,1.70
2023-01-17T21:22:29.230Z,2.22
2023-01-17T21:24:58.579Z,1.90
2023-01-17T21:27:26.548Z,1.95
2023-01-17T21:29:53.884Z,2.33
2023-01-17T21:32:21.176Z,2.03
2023-01-17T21:34:47.947Z,1.70
2023-01-17T21:37:15.998Z,1.73
2023-01-17T21:39:44.037Z,1.90
2023-01-17T21:42:12.303Z,2.15
2023-01-17T21:44:49.082Z,2.10
2023-01-17T21:47:16.019Z,1.98
2023-01-17T21:49:43.206Z,1.92
2023-01-17T21:52:11.618Z,1.70
2023-01-17T21:54:38.705Z,2.28
2023-01-17T21:57:05.614Z,2.05
2023-01-17T21:59:33.994Z,2.20
2023-01-17T22:02:00.830Z,1.80
2023-01-17T22:04:29.135Z,2.28
2023-01-17T22:06:55.968Z,1.90
2023-01-17T22:09:22.837Z,2.17
2023-01-17T22:11:49.641Z,2.25
2023-01-17T22:14:18.041Z,2.67
2023-01-17T22:16:49.294Z,2.30
2023-01-17T22:21:43.044Z,2.70
2023-01-17T22:24:10.308Z,2.58
2023-01-17T22:26:40.993Z,2.25
2023-01-17T22:29:10.774Z,2.60
2023-01-17T22:31:40.788Z,2.70
2023-01-17T22:34:09.012Z,4.20
2023-01-17T22:36:36.108Z,2.80
2023-01-17T22:39:03.006Z,3.35
2023-01-17T22:41:39.821Z,3.13
2023-01-17T22:44:09.030Z,3.50
2023-01-17T22:46:39.023Z,3.45
2023-01-17T22:49:12.057Z,3.50
2023-01-17T22:51:38.943Z,4.28
2023-01-17T22:54:06.032Z,4.60
2023-01-17T22:56:35.047Z,3.50
2023-01-17T22:59:04.978Z,3.67
2023-01-17T23:01:33.169Z,3.33
2023-01-17T23:04:01.611Z,3.35
2023-01-17T23:06:31.507Z,2.70
2023-01-17T23:09:03.498Z,3.30
2023-01-17T23:11:32.244Z,3.65
2023-01-17T23:13:59.077Z,3.75
2023-01-17T23:16:25.984Z,3.63
2023-01-17T23:18:53.322Z,3.58
2023-01-17T23:21:21.760Z,4.07
2023-01-17T23:23:49.949Z,4.03
2023-01-17T23:26:17.115Z,4.55
2023-01-17T23:28:43.861Z,3.80
2023-01-17T23:31:11.217Z,3.75
2023-01-17T23:33:38.571Z,3.42
2023-01-17T23:36:05.701Z,4.05
2023-01-17T23:38:32.605Z,3.47
2023-01-17T23:41:03.309Z,3.10
2023-01-17T23:43:30.024Z,3.50
2023-01-17T23:45:56.876Z,3.70
2023-01-17T23:48:24.253Z,3.60
2023-01-17T23:50:51.125Z,3.13
2023-01-17T23:53:20.556Z,3.08
2023-01-17T23:55:48.645Z,3.78
2023-01-17T23:58:17.387Z,3.70
